TAF for South England South Wales and Channel Islands - 12 Dec 2017 - 2347 UTC - RocketRoute WX - rrwx.com
EGJA   EGUB   EGKB   EGDM   EGHH 122001Z 1221/1306 20009KT 9999 FEW030 TEMPO 1221/1303 21015G25KT 8000 -RA PROB30 TEMPO 1221/1302 RA BKN014 BECMG 1301/1304 27010KT EGGD AMD 122150Z 1221/1318 19008KT 9999 SCT020 BECMG 1221/1223 5000 -RA BKN009 TEMPO 1221/1301 20018G28KT 3000 RADZ BKN004 PROB30 TEMPO 1222/1301 1400 BR BKN001 BECMG 1300/1303 25010KT 9999 NSW SCT009 PROB30 TEMPO 1301/1303 27015G25KT TEMPO 1305/1312 5000 SHRA BKN009 PROB40 TEMPO 1306/1312 2000 +SHRA BKN004 BECMG 1308/1311 26018G28KT PROB40 TEMPO 1310/1318 26022G38KT EGVN 121949Z 1221/1321 19010KT 9999 BKN030 BECMG 1221/1223 5000 -RA BKN012 TEMPO 1222/1303 3000 RADZ BKN003 BECMG 1302/1305 9999 NSW FEW012 PROB30 1305/1308 3000 BR BKN003 TEMPO 1307/1314 6000 -RA BKN008 PROB30 TEMPO 1308/1314 25016G26KT 3500 RA BKN003 TEMPO 1318/1321 24015G25KT 4000 SHRA SCT014 EGFF 121704Z 1218/1318 21010KT 9999 FEW045 TEMPO 1218/1301 23017G27KT 6000 RA BKN008 BECMG 1222/1301 30010KT BECMG 1305/1308 24018G28KT TEMPO 1305/1315 7000 SHRA BKN010 PROB30 TEMPO 1310/1313 24025G40KT +RA BKN008 TEMPO 1316/1318 24020G42KT 7000 SHRA PROB40 TEMPO 1316/1318 4000 +SHRA BKN008 BKN030CB EGTC   EGDR 121645Z 1218/1303 21015G25KT 8000 -RA BKN020 BECMG 1218/1220 21022G35KT 5000 RA BKN010 OVC015 TEMPO 1219/1221 3000 RADZ SCT004 OVC006 BECMG 1221/1223 31015G25KT 9999 NSW SCT016 EGTE AMD 122333Z 1223/1302 22008KT 9999 SCT012 PROB30 TEMPO 1223/1302 23015G25KT 7000 RA BKN008 EGLF   EGTG   EGBJ   EGJB 121703Z 1218/1303 21018KT 9999 FEW020 BKN030 PROB40 TEMPO 1218/1219 8000 SHRA BKN015CB BECMG 1219/1221 20025G35KT 5000 RA BKN015 BECMG 1301/1303 28020KT 9999 NSW BKN030 EGJJ 121703Z 1218/1303 21018KT 9999 FEW020 BKN030 PROB40 TEMPO 1218/1220 8000 SHRA BKN015CB BECMG 1220/1222 19024G34KT 5000 RA BKN015 BECMG 1302/1303 28020KT 9999 NSW BKN030 EGGW AMD 122104Z 1221/1318 23006KT 9999 FEW020 BECMG 1221/1224 6000 -RA BKN012 PROB30 TEMPO 1222/1302 23015G25KT TEMPO 1223/1302 4000 RADZ BKN003 PROB30 1223/1302 0300 FG BKN001 BECMG 1302/1305 0300 RADZ FG BKN001 BECMG 1303/1305 29010KT BECMG 1305/1308 9999 NSW FEW045 TEMPO 1308/1315 7000 SHRA BKN010 PROB40 TEMPO 1309/1315 4000 +SHRA BKN007 BECMG 1315/1318 28015G25KT EGLC   EGKK AMD 122020Z 1220/1324 19006KT 9999 SCT030 TEMPO 1220/1224 8000 RA BKN012 BECMG 1300/1303 BKN012 TEMPO 1300/1305 19015G25KT 6000 RA BKN008 PROB30 TEMPO 1300/1305 3000 RADZ BKN004 BECMG 1305/1308 BKN030 TEMPO 1310/1316 7000 SHRA PROB40 TEMPO 1313/1316 26015G28KT 4000 +SHRA BKN014 TEMPO 1320/1324 26015G30KT 7000 SHRA PROB40 TEMPO 1320/1322 4000 +SHRA BKN014 EGLL 121656Z 1218/1324 20010KT CAVOK PROB30 TEMPO 1218/1221 7000 BECMG 1219/1222 BKN025 TEMPO 1221/1306 7000 -RA BKN012 PROB30 TEMPO 1223/1306 20015G25KT 3000 RADZ BKN005 TEMPO 1310/1316 27018G28KT 7000 SHRA BKN012 PROB30 TEMPO 1312/1316 4000 +SHRA BECMG 1318/1321 26020G30KT TEMPO 1320/1324 6000 SHRA BKN012 EGSS AMD 122104Z 1221/1324 22006KT 9999 FEW020 BECMG 1221/1224 6000 -RA BKN012 PROB30 TEMPO 1222/1302 23015G25KT TEMPO 1300/1306 3000 RADZ BKN003 PROB30 TEMPO 1302/1307 0300 FG BKN001 BECMG 1303/1305 28010KT BECMG 1306/1309 22012KT 9999 NSW SCT020 TEMPO 1310/1315 21015G25KT 7000 SHRA BKN009 PROB30 TEMPO 1310/1315 3000 +SHRA BECMG 1315/1318 28015G25KT BECMG 1318/1321 22012KT TEMPO 1320/1324 21015G27KT 6000 SHRA BKN010 PROB30 TEMPO 1321/1324 3000 +SHRA BKN006 EGMD 122012Z 1221/1306 21015KT 9999 FEW020 BECMG 1221/1224 21025KT TEMPO 1222/1306 7000 RA BKN012 PROB40 TEMPO 1301/1305 23028G40KT 3000 SHRA BKN007 BECMG 1303/1306 26015KT EGDL   EGMH   EGVP   EGHQ   EGWU 121942Z 1221/1315 19005KT 9999 BKN035 BECMG 1221/1224 19015KT -RA BKN012 PROB40 TEMPO 1300/1305 4000 RA BKN006 BECMG 1304/1307 NSW FEW012 TEMPO 1309/1315 25018G28KT 6000 SHRA BKN012 PROB30 TEMPO 1313/1315 4000 +SHRA EGHK   EGHE 121401Z 1215/1224 23016KT 9999 SCT030 BECMG 1215/1217 22030KT TEMPO 1215/1217 7000 RA BKN010 EGKA   EGHI   EGMC 122012Z 1221/1306 20008KT 9999 FEW020 TEMPO 1222/1306 7000 RA BKN012 PROB40 TEMPO 1223/1304 23015G25KT 3000 RADZ BKN007 BECMG 1304/1306 27012KT TEMPO 1304/1306 3000 DZ BKN004 EGDX   EGDY 121345Z 1215/1224 21007KT 9999 SCT025 BECMG 1216/1219 8000 -RA FEW008 BKN020 TEMPO 1219/1224 4000 RA SCT008 BKN015

RocketRoute WX - rrwx.com weather for pilots